DAL2122 KCLT-KLGA
Flight info
| Callsign | DAL2122 |
|---|---|
| Flight time | 1h 20m |
| Altitude | 37000 |
| Route | BARMY5 RDU NOWAE Q87 HURTS PROUD2 |
| Aircraft | B738/M-SDE2E3FGHIRWXY/LB1 |
Departure
| Time | 2026-05-05 12:11 |
|---|---|
| Airport | Charlotte Douglas International Airport (KCLT) |
Arrival
| Time | 2026-05-05 13:31 |
|---|---|
| Airport | LaGuardia Airport (KLGA) |
| Time | Latitude | Longitude | Altitude | Speed | Heading |
|---|---|---|---|---|---|
| 2026-05-05 11:56 | 35.22001 | -80.94016 | 745 ft | 0 kts | 344° |
| 2026-05-05 12:03 | 35.21979 | -80.94009 | 743 ft | 4 kts | 351° |
| 2026-05-05 12:03 | 35.21952 | -80.94004 | 741 ft | 4 kts | 349° |
| 2026-05-05 12:03 | 35.21926 | -80.94001 | 741 ft | 4 kts | 4° |
| 2026-05-05 12:03 | 35.21900 | -80.94008 | 743 ft | 4 kts | 26° |
| 2026-05-05 12:04 | 35.21879 | -80.94026 | 740 ft | 4 kts | 56° |
| 2026-05-05 12:04 | 35.21872 | -80.94052 | 738 ft | 4 kts | 116° |
| 2026-05-05 12:04 | 35.21878 | -80.94061 | 740 ft | 2 kts | 134° |
| 2026-05-05 12:04 | 35.21878 | -80.94062 | 740 ft | 1 kts | 134° |
| 2026-05-05 12:06 | 35.21862 | -80.94041 | 738 ft | 7 kts | 134° |
| 2026-05-05 12:07 | 35.21820 | -80.93986 | 741 ft | 10 kts | 115° |
| 2026-05-05 12:07 | 35.21838 | -80.93909 | 741 ft | 10 kts | 54° |
| 2026-05-05 12:07 | 35.21881 | -80.93847 | 741 ft | 9 kts | 51° |
| 2026-05-05 12:07 | 35.21922 | -80.93787 | 743 ft | 9 kts | 48° |
| 2026-05-05 12:08 | 35.21964 | -80.93729 | 746 ft | 9 kts | 45° |
| 2026-05-05 12:08 | 35.22023 | -80.93713 | 744 ft | 9 kts | 357° |
| 2026-05-05 12:08 | 35.22099 | -80.93719 | 746 ft | 13 kts | 355° |
| 2026-05-05 12:08 | 35.22204 | -80.93728 | 748 ft | 16 kts | 356° |
| 2026-05-05 12:09 | 35.22314 | -80.93736 | 749 ft | 15 kts | 355° |
| 2026-05-05 12:09 | 35.22419 | -80.93746 | 751 ft | 15 kts | 356° |
| 2026-05-05 12:09 | 35.22498 | -80.93735 | 754 ft | 11 kts | 49° |
| 2026-05-05 12:09 | 35.22510 | -80.93646 | 751 ft | 10 kts | 88° |
| 2026-05-05 12:10 | 35.22451 | -80.93609 | 751 ft | 13 kts | 176° |
| 2026-05-05 12:10 | 35.22140 | -80.93582 | 747 ft | 82 kts | 176° |
| 2026-05-05 12:10 | 35.21345 | -80.93518 | 751 ft | 143 kts | 178° |
| 2026-05-05 12:10 | 35.20273 | -80.93447 | 1249 ft | 157 kts | 178° |
| 2026-05-05 12:11 | 35.19115 | -80.93356 | 1867 ft | 176 kts | 181° |
| 2026-05-05 12:11 | 35.17870 | -80.93186 | 2637 ft | 185 kts | 169° |
| 2026-05-05 12:11 | 35.16684 | -80.92250 | 3061 ft | 225 kts | 136° |
| 2026-05-05 12:11 | 35.15883 | -80.90436 | 3298 ft | 261 kts | 113° |
| 2026-05-05 12:12 | 35.15257 | -80.88248 | 3783 ft | 278 kts | 111° |
| 2026-05-05 12:12 | 35.14687 | -80.85987 | 4739 ft | 278 kts | 108° |
| 2026-05-05 12:12 | 35.14517 | -80.83615 | 5570 ft | 287 kts | 81° |
| 2026-05-05 12:12 | 35.15150 | -80.81288 | 6479 ft | 291 kts | 70° |
| 2026-05-05 12:13 | 35.15959 | -80.79006 | 7309 ft | 292 kts | 69° |
| 2026-05-05 12:13 | 35.16820 | -80.76754 | 8121 ft | 296 kts | 70° |
| 2026-05-05 12:13 | 35.17585 | -80.74374 | 8738 ft | 305 kts | 73° |
| 2026-05-05 12:13 | 35.18293 | -80.71926 | 9586 ft | 306 kts | 74° |
| 2026-05-05 12:14 | 35.18991 | -80.69456 | 10330 ft | 312 kts | 75° |
| 2026-05-05 12:14 | 35.19699 | -80.66870 | 10655 ft | 331 kts | 75° |
| 2026-05-05 12:14 | 35.20441 | -80.64127 | 10792 ft | 356 kts | 74° |
| 2026-05-05 12:14 | 35.21244 | -80.61147 | 11178 ft | 370 kts | 74° |
| 2026-05-05 12:15 | 35.22053 | -80.58168 | 11770 ft | 376 kts | 73° |
| 2026-05-05 12:15 | 35.22882 | -80.55119 | 12533 ft | 379 kts | 73° |
| 2026-05-05 12:15 | 35.23727 | -80.52011 | 13308 ft | 382 kts | 73° |
| 2026-05-05 12:15 | 35.24560 | -80.48947 | 14023 ft | 386 kts | 72° |
| 2026-05-05 12:16 | 35.25363 | -80.45749 | 14698 ft | 390 kts | 77° |
| 2026-05-05 12:16 | 35.25860 | -80.42513 | 15380 ft | 394 kts | 82° |
| 2026-05-05 12:16 | 35.26276 | -80.39177 | 16090 ft | 398 kts | 82° |
| 2026-05-05 12:16 | 35.26681 | -80.35804 | 16776 ft | 403 kts | 82° |
| 2026-05-05 12:17 | 35.27098 | -80.32388 | 17447 ft | 408 kts | 82° |
| 2026-05-05 12:17 | 35.27534 | -80.28940 | 18113 ft | 412 kts | 82° |
| 2026-05-05 12:17 | 35.27983 | -80.25456 | 18736 ft | 417 kts | 81° |
| 2026-05-05 12:17 | 35.28442 | -80.21937 | 19302 ft | 421 kts | 81° |
| 2026-05-05 12:18 | 35.28909 | -80.18377 | 19877 ft | 425 kts | 81° |
| 2026-05-05 12:18 | 35.29377 | -80.14788 | 20431 ft | 429 kts | 81° |
| 2026-05-05 12:18 | 35.29852 | -80.11165 | 20968 ft | 433 kts | 79° |
| 2026-05-05 12:18 | 35.30576 | -80.07570 | 21489 ft | 437 kts | 70° |
| 2026-05-05 12:19 | 35.31598 | -80.04058 | 22032 ft | 440 kts | 68° |
| 2026-05-05 12:19 | 35.32675 | -80.00531 | 22569 ft | 443 kts | 68° |
| 2026-05-05 12:19 | 35.33736 | -79.97044 | 23605 ft | 433 kts | 68° |
| 2026-05-05 12:19 | 35.34760 | -79.93610 | 24430 ft | 426 kts | 68° |
| 2026-05-05 12:20 | 35.35768 | -79.90180 | 24945 ft | 429 kts | 68° |
| 2026-05-05 12:20 | 35.36777 | -79.86719 | 25333 ft | 434 kts | 68° |
| 2026-05-05 12:20 | 35.37782 | -79.83260 | 25748 ft | 438 kts | 68° |
| 2026-05-05 12:20 | 35.38808 | -79.79733 | 26197 ft | 440 kts | 68° |
| 2026-05-05 12:21 | 35.39837 | -79.76190 | 26670 ft | 443 kts | 68° |
| 2026-05-05 12:21 | 35.40874 | -79.72622 | 27119 ft | 445 kts | 68° |
| 2026-05-05 12:21 | 35.41915 | -79.69032 | 27543 ft | 448 kts | 68° |
| 2026-05-05 12:21 | 35.42963 | -79.65416 | 27963 ft | 451 kts | 68° |
| 2026-05-05 12:22 | 35.44016 | -79.61776 | 28388 ft | 454 kts | 68° |
| 2026-05-05 12:22 | 35.45073 | -79.58118 | 28795 ft | 457 kts | 68° |
| 2026-05-05 12:22 | 35.46135 | -79.54436 | 29209 ft | 459 kts | 68° |
| 2026-05-05 12:22 | 35.47203 | -79.50729 | 29603 ft | 462 kts | 68° |
| 2026-05-05 12:23 | 35.48276 | -79.46998 | 29983 ft | 464 kts | 68° |
| 2026-05-05 12:23 | 35.49354 | -79.43246 | 30334 ft | 467 kts | 68° |
| 2026-05-05 12:23 | 35.50434 | -79.39482 | 30648 ft | 469 kts | 68° |
| 2026-05-05 12:23 | 35.51516 | -79.35706 | 30972 ft | 471 kts | 68° |
| 2026-05-05 12:24 | 35.52604 | -79.31901 | 31286 ft | 473 kts | 68° |
| 2026-05-05 12:24 | 35.53693 | -79.28091 | 31591 ft | 474 kts | 68° |
| 2026-05-05 12:24 | 35.54786 | -79.24258 | 31884 ft | 476 kts | 68° |
| 2026-05-05 12:24 | 35.55884 | -79.20408 | 32166 ft | 478 kts | 68° |
| 2026-05-05 12:25 | 35.56984 | -79.16543 | 32446 ft | 480 kts | 68° |
| 2026-05-05 12:25 | 35.58182 | -79.12720 | 32707 ft | 479 kts | 61° |
| 2026-05-05 12:25 | 35.59823 | -79.09176 | 33039 ft | 475 kts | 52° |
| 2026-05-05 12:25 | 35.61812 | -79.05985 | 33466 ft | 469 kts | 44° |
| 2026-05-05 12:26 | 35.64134 | -79.03211 | 33870 ft | 463 kts | 37° |
| 2026-05-05 12:26 | 35.66565 | -79.00618 | 34199 ft | 462 kts | 36° |
| 2026-05-05 12:26 | 35.69013 | -78.98048 | 34456 ft | 462 kts | 36° |
| 2026-05-05 12:26 | 35.71455 | -78.95470 | 34727 ft | 463 kts | 37° |
| 2026-05-05 12:27 | 35.73883 | -78.92877 | 35012 ft | 462 kts | 37° |
| 2026-05-05 12:27 | 35.76299 | -78.90269 | 35312 ft | 461 kts | 37° |
| 2026-05-05 12:27 | 35.78704 | -78.87660 | 35588 ft | 461 kts | 37° |
| 2026-05-05 12:27 | 35.81111 | -78.85041 | 35851 ft | 461 kts | 37° |
| 2026-05-05 12:28 | 35.83514 | -78.82424 | 36125 ft | 461 kts | 37° |
| 2026-05-05 12:28 | 35.85914 | -78.79811 | 36404 ft | 460 kts | 37° |
| 2026-05-05 12:28 | 35.88318 | -78.77204 | 36666 ft | 460 kts | 36° |
| 2026-05-05 12:28 | 35.90712 | -78.74669 | 36915 ft | 459 kts | 36° |
| 2026-05-05 12:29 | 35.93148 | -78.72124 | 37128 ft | 460 kts | 36° |
| 2026-05-05 12:29 | 35.95608 | -78.69566 | 37105 ft | 464 kts | 36° |
| 2026-05-05 12:29 | 36.00582 | -78.64378 | 37105 ft | 469 kts | 36° |
| 2026-05-05 12:30 | 36.05548 | -78.59159 | 37105 ft | 468 kts | 36° |
| 2026-05-05 12:30 | 36.10504 | -78.53934 | 37112 ft | 468 kts | 36° |
| 2026-05-05 12:31 | 36.15443 | -78.48718 | 37113 ft | 467 kts | 36° |
| 2026-05-05 12:31 | 36.20388 | -78.43489 | 37094 ft | 467 kts | 36° |
| 2026-05-05 12:32 | 36.25317 | -78.38267 | 37096 ft | 466 kts | 36° |
| 2026-05-05 12:32 | 36.30243 | -78.33040 | 37093 ft | 466 kts | 37° |
| 2026-05-05 12:33 | 36.35169 | -78.27803 | 37090 ft | 466 kts | 37° |
| 2026-05-05 12:33 | 36.40059 | -78.22508 | 37080 ft | 467 kts | 39° |
| 2026-05-05 12:34 | 36.44778 | -78.16935 | 37097 ft | 468 kts | 40° |
| 2026-05-05 12:34 | 36.49445 | -78.11343 | 37113 ft | 469 kts | 40° |
| 2026-05-05 12:35 | 36.54167 | -78.05739 | 37126 ft | 470 kts | 40° |
| 2026-05-05 12:35 | 36.58904 | -78.00140 | 37139 ft | 470 kts | 40° |
| 2026-05-05 12:36 | 36.63653 | -77.94523 | 37139 ft | 471 kts | 40° |
| 2026-05-05 12:36 | 36.68406 | -77.88886 | 37091 ft | 472 kts | 40° |
| 2026-05-05 12:37 | 36.73163 | -77.83233 | 37091 ft | 472 kts | 40° |
| 2026-05-05 12:37 | 36.77915 | -77.77578 | 37094 ft | 473 kts | 40° |
| 2026-05-05 12:38 | 36.82673 | -77.71914 | 37091 ft | 473 kts | 40° |
| 2026-05-05 12:38 | 36.87433 | -77.66252 | 37084 ft | 472 kts | 40° |
| 2026-05-05 12:39 | 36.92189 | -77.60582 | 37078 ft | 472 kts | 40° |
| 2026-05-05 12:39 | 36.96933 | -77.54913 | 37065 ft | 471 kts | 40° |
| 2026-05-05 12:40 | 37.01667 | -77.49245 | 37066 ft | 471 kts | 40° |
| 2026-05-05 12:40 | 37.06395 | -77.43574 | 37071 ft | 470 kts | 41° |
| 2026-05-05 12:41 | 37.11122 | -77.37896 | 37072 ft | 470 kts | 41° |
| 2026-05-05 12:41 | 37.15816 | -77.32258 | 37073 ft | 469 kts | 41° |
| 2026-05-05 12:42 | 37.20523 | -77.26594 | 37070 ft | 469 kts | 41° |
| 2026-05-05 12:42 | 37.25230 | -77.20918 | 37062 ft | 469 kts | 41° |
| 2026-05-05 12:43 | 37.29138 | -77.16198 | 37052 ft | 469 kts | 41° |
| 2026-05-05 12:43 | 37.33834 | -77.10516 | 37051 ft | 468 kts | 41° |
| 2026-05-05 12:44 | 37.39314 | -77.03872 | 37044 ft | 469 kts | 41° |
| 2026-05-05 12:44 | 37.43215 | -76.99134 | 37064 ft | 469 kts | 41° |
| 2026-05-05 12:45 | 37.48192 | -76.93925 | 37070 ft | 462 kts | 25° |
| 2026-05-05 12:45 | 37.53890 | -76.90221 | 37079 ft | 461 kts | 24° |
| 2026-05-05 12:46 | 37.59589 | -76.86569 | 37081 ft | 462 kts | 24° |
| 2026-05-05 12:46 | 37.65285 | -76.82812 | 37067 ft | 462 kts | 25° |
| 2026-05-05 12:47 | 37.70975 | -76.79006 | 37044 ft | 463 kts | 25° |
| 2026-05-05 12:47 | 37.76674 | -76.75186 | 37046 ft | 463 kts | 25° |
| 2026-05-05 12:48 | 37.82369 | -76.71367 | 37047 ft | 464 kts | 25° |
| 2026-05-05 12:48 | 37.88073 | -76.67541 | 37038 ft | 464 kts | 24° |
| 2026-05-05 12:49 | 37.93825 | -76.63867 | 37044 ft | 463 kts | 23° |
| 2026-05-05 12:49 | 37.99605 | -76.60246 | 37023 ft | 463 kts | 23° |
| 2026-05-05 12:50 | 38.05382 | -76.56597 | 37020 ft | 463 kts | 24° |
| 2026-05-05 12:50 | 38.11141 | -76.52934 | 37020 ft | 463 kts | 24° |
| 2026-05-05 12:51 | 38.16895 | -76.49263 | 37022 ft | 463 kts | 24° |
| 2026-05-05 12:51 | 38.22613 | -76.45612 | 36998 ft | 463 kts | 24° |
| 2026-05-05 12:52 | 38.28360 | -76.41936 | 36999 ft | 463 kts | 24° |
| 2026-05-05 12:52 | 38.33727 | -76.37357 | 37004 ft | 466 kts | 35° |
| 2026-05-05 12:53 | 38.38795 | -76.32190 | 37002 ft | 466 kts | 36° |
| 2026-05-05 12:53 | 38.43846 | -76.27111 | 36991 ft | 459 kts | 35° |
| 2026-05-05 12:54 | 38.51433 | -76.19664 | 36447 ft | 461 kts | 35° |
| 2026-05-05 12:54 | 38.53972 | -76.17175 | 35895 ft | 459 kts | 35° |
| 2026-05-05 12:55 | 38.56502 | -76.14690 | 35267 ft | 460 kts | 35° |
| 2026-05-05 12:55 | 38.59040 | -76.12194 | 34634 ft | 460 kts | 35° |
| 2026-05-05 12:55 | 38.61581 | -76.09692 | 33980 ft | 461 kts | 35° |
| 2026-05-05 12:55 | 38.64132 | -76.07200 | 33222 ft | 462 kts | 34° |
| 2026-05-05 12:56 | 38.66721 | -76.04759 | 32492 ft | 463 kts | 33° |
| 2026-05-05 12:56 | 38.69325 | -76.02347 | 31981 ft | 459 kts | 33° |
| 2026-05-05 12:56 | 38.71901 | -75.99967 | 31467 ft | 455 kts | 33° |
| 2026-05-05 12:56 | 38.74460 | -75.97595 | 30975 ft | 452 kts | 33° |
| 2026-05-05 12:57 | 38.76993 | -75.95235 | 30490 ft | 449 kts | 34° |
| 2026-05-05 12:57 | 38.79514 | -75.92877 | 29995 ft | 447 kts | 34° |
| 2026-05-05 12:57 | 38.82011 | -75.90538 | 29431 ft | 444 kts | 34° |
| 2026-05-05 12:57 | 38.84495 | -75.88204 | 28909 ft | 440 kts | 34° |
| 2026-05-05 12:58 | 38.86955 | -75.85893 | 28412 ft | 436 kts | 34° |
| 2026-05-05 12:58 | 38.89389 | -75.83603 | 27916 ft | 432 kts | 33° |
| 2026-05-05 12:58 | 38.91803 | -75.81332 | 27431 ft | 428 kts | 33° |
| 2026-05-05 12:58 | 38.94196 | -75.79079 | 26945 ft | 425 kts | 33° |
| 2026-05-05 12:59 | 38.96556 | -75.76851 | 26719 ft | 416 kts | 33° |
| 2026-05-05 12:59 | 38.98892 | -75.74645 | 26477 ft | 422 kts | 33° |
| 2026-05-05 12:59 | 39.01296 | -75.72376 | 26241 ft | 435 kts | 33° |
| 2026-05-05 13:00 | 39.06153 | -75.67777 | 25721 ft | 433 kts | 33° |
| 2026-05-05 13:00 | 39.08564 | -75.65488 | 25468 ft | 429 kts | 33° |
| 2026-05-05 13:01 | 39.15704 | -75.58704 | 24749 ft | 421 kts | 33° |
| 2026-05-05 13:01 | 39.18056 | -75.56466 | 24499 ft | 420 kts | 33° |
| 2026-05-05 13:01 | 39.20404 | -75.54231 | 24258 ft | 419 kts | 33° |
| 2026-05-05 13:01 | 39.22745 | -75.52000 | 24021 ft | 418 kts | 33° |
| 2026-05-05 13:02 | 39.25106 | -75.49799 | 23671 ft | 420 kts | 32° |
| 2026-05-05 13:02 | 39.27516 | -75.47658 | 23269 ft | 421 kts | 31° |
| 2026-05-05 13:02 | 39.29939 | -75.45538 | 22857 ft | 417 kts | 31° |
| 2026-05-05 13:02 | 39.32322 | -75.43450 | 22460 ft | 411 kts | 31° |
| 2026-05-05 13:03 | 39.34669 | -75.41385 | 22096 ft | 407 kts | 31° |
| 2026-05-05 13:03 | 39.37004 | -75.39320 | 21748 ft | 407 kts | 31° |
| 2026-05-05 13:03 | 39.39337 | -75.37250 | 21401 ft | 406 kts | 31° |
| 2026-05-05 13:03 | 39.41666 | -75.35178 | 21047 ft | 406 kts | 31° |
| 2026-05-05 13:04 | 39.43993 | -75.33104 | 20692 ft | 406 kts | 30° |
| 2026-05-05 13:04 | 39.46320 | -75.31028 | 20329 ft | 406 kts | 30° |
| 2026-05-05 13:04 | 39.48640 | -75.28957 | 19969 ft | 405 kts | 30° |
| 2026-05-05 13:04 | 39.50952 | -75.26890 | 19619 ft | 404 kts | 31° |
| 2026-05-05 13:05 | 39.53240 | -75.24785 | 19268 ft | 402 kts | 31° |
| 2026-05-05 13:05 | 39.55497 | -75.22663 | 18921 ft | 400 kts | 32° |
| 2026-05-05 13:05 | 39.57747 | -75.20538 | 18558 ft | 398 kts | 32° |
| 2026-05-05 13:05 | 39.59947 | -75.18463 | 18211 ft | 396 kts | 31° |
| 2026-05-05 13:06 | 39.62169 | -75.16372 | 17808 ft | 393 kts | 31° |
| 2026-05-05 13:06 | 39.64378 | -75.14298 | 17435 ft | 391 kts | 31° |
| 2026-05-05 13:06 | 39.66573 | -75.12236 | 17089 ft | 388 kts | 31° |
| 2026-05-05 13:06 | 39.68758 | -75.10208 | 16761 ft | 384 kts | 30° |
| 2026-05-05 13:07 | 39.70970 | -75.08284 | 16408 ft | 382 kts | 28° |
| 2026-05-05 13:07 | 39.73196 | -75.06398 | 16057 ft | 381 kts | 28° |
| 2026-05-05 13:07 | 39.75417 | -75.04519 | 15709 ft | 381 kts | 28° |
| 2026-05-05 13:07 | 39.77626 | -75.02636 | 15366 ft | 380 kts | 29° |
| 2026-05-05 13:08 | 39.79831 | -75.00744 | 15003 ft | 380 kts | 29° |
| 2026-05-05 13:08 | 39.82032 | -74.98847 | 14659 ft | 379 kts | 29° |
| 2026-05-05 13:08 | 39.84233 | -74.96945 | 14308 ft | 379 kts | 29° |
| 2026-05-05 13:08 | 39.86414 | -74.95027 | 13969 ft | 379 kts | 31° |
| 2026-05-05 13:09 | 39.88573 | -74.93066 | 13602 ft | 378 kts | 31° |
| 2026-05-05 13:09 | 39.90728 | -74.91099 | 13224 ft | 377 kts | 31° |
| 2026-05-05 13:09 | 39.92826 | -74.89050 | 12854 ft | 378 kts | 40° |
| 2026-05-05 13:09 | 39.94611 | -74.86544 | 12564 ft | 376 kts | 47° |
| 2026-05-05 13:10 | 39.96318 | -74.83984 | 12259 ft | 373 kts | 47° |
| 2026-05-05 13:10 | 39.98030 | -74.81459 | 11951 ft | 370 kts | 46° |
| 2026-05-05 13:10 | 39.99751 | -74.78974 | 11650 ft | 368 kts | 46° |
| 2026-05-05 13:10 | 40.01468 | -74.76516 | 11364 ft | 366 kts | 46° |
| 2026-05-05 13:11 | 40.03182 | -74.74065 | 11072 ft | 364 kts | 46° |
| 2026-05-05 13:11 | 40.04885 | -74.71624 | 10776 ft | 363 kts | 46° |
| 2026-05-05 13:11 | 40.06572 | -74.69203 | 10485 ft | 358 kts | 47° |
| 2026-05-05 13:11 | 40.08235 | -74.66812 | 10197 ft | 353 kts | 47° |
| 2026-05-05 13:12 | 40.09871 | -74.64459 | 9979 ft | 346 kts | 47° |
| 2026-05-05 13:12 | 40.11454 | -74.62180 | 9966 ft | 332 kts | 47° |
| 2026-05-05 13:12 | 40.12990 | -74.59967 | 9715 ft | 328 kts | 47° |
| 2026-05-05 13:12 | 40.14507 | -74.57781 | 9522 ft | 321 kts | 47° |
| 2026-05-05 13:13 | 40.15976 | -74.55664 | 9364 ft | 317 kts | 47° |
| 2026-05-05 13:13 | 40.17473 | -74.53506 | 9220 ft | 316 kts | 47° |
| 2026-05-05 13:13 | 40.18948 | -74.51412 | 9078 ft | 316 kts | 43° |
| 2026-05-05 13:13 | 40.20611 | -74.49552 | 8936 ft | 315 kts | 33° |
| 2026-05-05 13:14 | 40.22462 | -74.48015 | 8798 ft | 314 kts | 28° |
| 2026-05-05 13:14 | 40.24342 | -74.46560 | 8663 ft | 314 kts | 28° |
| 2026-05-05 13:14 | 40.26228 | -74.45117 | 8526 ft | 314 kts | 28° |
| 2026-05-05 13:14 | 40.28118 | -74.43675 | 8399 ft | 314 kts | 28° |
| 2026-05-05 13:15 | 40.29996 | -74.42245 | 8352 ft | 310 kts | 28° |
| 2026-05-05 13:15 | 40.31851 | -74.40831 | 8294 ft | 308 kts | 27° |
| 2026-05-05 13:15 | 40.33711 | -74.39415 | 8116 ft | 311 kts | 27° |
| 2026-05-05 13:15 | 40.35582 | -74.37991 | 7988 ft | 311 kts | 27° |
| 2026-05-05 13:16 | 40.37450 | -74.36572 | 7882 ft | 310 kts | 27° |
| 2026-05-05 13:16 | 40.39307 | -74.35162 | 7818 ft | 307 kts | 27° |
| 2026-05-05 13:16 | 40.41159 | -74.33755 | 7766 ft | 308 kts | 27° |
| 2026-05-05 13:16 | 40.43022 | -74.32342 | 7670 ft | 311 kts | 27° |
| 2026-05-05 13:17 | 40.44895 | -74.30923 | 7545 ft | 310 kts | 27° |
| 2026-05-05 13:17 | 40.46758 | -74.29513 | 7491 ft | 307 kts | 27° |
| 2026-05-05 13:17 | 40.48606 | -74.28115 | 7214 ft | 312 kts | 27° |
| 2026-05-05 13:17 | 40.50498 | -74.26684 | 7068 ft | 308 kts | 27° |
| 2026-05-05 13:18 | 40.52312 | -74.25312 | 6964 ft | 302 kts | 27° |
| 2026-05-05 13:18 | 40.54118 | -74.23946 | 6899 ft | 298 kts | 27° |
| 2026-05-05 13:18 | 40.55913 | -74.22591 | 6860 ft | 297 kts | 27° |
| 2026-05-05 13:18 | 40.57714 | -74.21232 | 6836 ft | 300 kts | 27° |
| 2026-05-05 13:19 | 40.59535 | -74.19859 | 6759 ft | 305 kts | 27° |
| 2026-05-05 13:19 | 40.61384 | -74.18469 | 6600 ft | 306 kts | 27° |
| 2026-05-05 13:19 | 40.63221 | -74.17089 | 6524 ft | 300 kts | 27° |
| 2026-05-05 13:19 | 40.65021 | -74.15734 | 6267 ft | 298 kts | 27° |
| 2026-05-05 13:20 | 40.66279 | -74.14786 | 6036 ft | 298 kts | 27° |
| 2026-05-05 13:20 | 40.68025 | -74.13464 | 5796 ft | 296 kts | 27° |
| 2026-05-05 13:20 | 40.69796 | -74.12115 | 5582 ft | 292 kts | 27° |
| 2026-05-05 13:20 | 40.71545 | -74.10774 | 5436 ft | 290 kts | 27° |
| 2026-05-05 13:21 | 40.73292 | -74.09429 | 5316 ft | 290 kts | 27° |
| 2026-05-05 13:21 | 40.75043 | -74.08079 | 5226 ft | 291 kts | 27° |
| 2026-05-05 13:21 | 40.76794 | -74.06727 | 5113 ft | 292 kts | 27° |
| 2026-05-05 13:21 | 40.78550 | -74.05368 | 4960 ft | 294 kts | 27° |
| 2026-05-05 13:22 | 40.80315 | -74.03999 | 4841 ft | 295 kts | 27° |
| 2026-05-05 13:22 | 40.82079 | -74.02621 | 4729 ft | 294 kts | 27° |
| 2026-05-05 13:22 | 40.83817 | -74.01259 | 4627 ft | 294 kts | 27° |
| 2026-05-05 13:22 | 40.85575 | -73.99880 | 4525 ft | 293 kts | 27° |
| 2026-05-05 13:23 | 40.87315 | -73.98508 | 4400 ft | 289 kts | 27° |
| 2026-05-05 13:23 | 40.89029 | -73.97146 | 4314 ft | 286 kts | 27° |
| 2026-05-05 13:23 | 40.90734 | -73.95791 | 4237 ft | 285 kts | 27° |
| 2026-05-05 13:23 | 40.92437 | -73.94436 | 4144 ft | 287 kts | 27° |
| 2026-05-05 13:24 | 40.94146 | -73.93070 | 4078 ft | 287 kts | 27° |
| 2026-05-05 13:24 | 40.95854 | -73.91703 | 4006 ft | 287 kts | 27° |
| 2026-05-05 13:24 | 40.97549 | -73.90334 | 3970 ft | 283 kts | 27° |
| 2026-05-05 13:24 | 40.99207 | -73.88987 | 3923 ft | 275 kts | 28° |
| 2026-05-05 13:25 | 41.00587 | -73.87342 | 3845 ft | 272 kts | 54° |
| 2026-05-05 13:25 | 41.01240 | -73.85054 | 3767 ft | 264 kts | 86° |
| 2026-05-05 13:25 | 41.01071 | -73.82683 | 3654 ft | 256 kts | 106° |
| 2026-05-05 13:25 | 41.00525 | -73.80448 | 3420 ft | 255 kts | 113° |
| 2026-05-05 13:26 | 40.99685 | -73.78446 | 3141 ft | 243 kts | 141° |
| 2026-05-05 13:26 | 40.98382 | -73.77030 | 3033 ft | 244 kts | 147° |
| 2026-05-05 13:26 | 40.97045 | -73.75634 | 3017 ft | 245 kts | 147° |
| 2026-05-05 13:26 | 40.95600 | -73.74560 | 2979 ft | 230 kts | 175° |
| 2026-05-05 13:27 | 40.94094 | -73.74785 | 3023 ft | 217 kts | 206° |
| 2026-05-05 13:27 | 40.92734 | -73.75604 | 2999 ft | 210 kts | 211° |
| 2026-05-05 13:27 | 40.91466 | -73.76425 | 2903 ft | 197 kts | 213° |
| 2026-05-05 13:27 | 40.90305 | -73.77315 | 2715 ft | 190 kts | 217° |
| 2026-05-05 13:28 | 40.89185 | -73.78234 | 2477 ft | 189 kts | 218° |
| 2026-05-05 13:28 | 40.88089 | -73.79147 | 2209 ft | 188 kts | 217° |
| 2026-05-05 13:28 | 40.87001 | -73.80050 | 1971 ft | 181 kts | 217° |
| 2026-05-05 13:28 | 40.85954 | -73.80919 | 1728 ft | 174 kts | 217° |
| 2026-05-05 13:29 | 40.84958 | -73.81745 | 1492 ft | 162 kts | 217° |
| 2026-05-05 13:29 | 40.84035 | -73.82512 | 1291 ft | 153 kts | 217° |
| 2026-05-05 13:29 | 40.83137 | -73.83258 | 1083 ft | 151 kts | 216° |
| 2026-05-05 13:29 | 40.82247 | -73.83996 | 923 ft | 149 kts | 215° |
| 2026-05-05 13:30 | 40.81398 | -73.84699 | 737 ft | 135 kts | 214° |
| 2026-05-05 13:30 | 40.80611 | -73.85352 | 529 ft | 133 kts | 214° |
| 2026-05-05 13:30 | 40.79844 | -73.85990 | 364 ft | 129 kts | 213° |
| 2026-05-05 13:30 | 40.79073 | -73.86631 | 198 ft | 131 kts | 212° |
| 2026-05-05 13:31 | 40.78564 | -73.87053 | 71 ft | 130 kts | 212° |
| 2026-05-05 13:31 | 40.77850 | -73.87642 | 20 ft | 103 kts | 212° |
| 2026-05-05 13:31 | 40.77348 | -73.88004 | 26 ft | 21 kts | 175° |
| 2026-05-05 13:31 | 40.77298 | -73.87983 | 26 ft | 5 kts | 118° |
| 2026-05-05 13:32 | 40.77330 | -73.87936 | 25 ft | 6 kts | 38° |
| 2026-05-05 13:32 | 40.77347 | -73.87918 | 25 ft | 3 kts | 39° |
| 2026-05-05 13:32 | 40.77372 | -73.87891 | 28 ft | 5 kts | 38° |
| 2026-05-05 13:32 | 40.77395 | -73.87871 | 26 ft | 7 kts | 32° |
| 2026-05-05 13:33 | 40.77450 | -73.87827 | 27 ft | 11 kts | 33° |
| 2026-05-05 13:33 | 40.77534 | -73.87757 | 26 ft | 17 kts | 32° |
| 2026-05-05 13:33 | 40.77606 | -73.87675 | 26 ft | 14 kts | 73° |
| 2026-05-05 13:33 | 40.77650 | -73.87576 | 27 ft | 14 kts | 33° |
| 2026-05-05 13:34 | 40.77738 | -73.87486 | 24 ft | 18 kts | 57° |
| 2026-05-05 13:34 | 40.77774 | -73.87325 | 20 ft | 18 kts | 88° |
| 2026-05-05 13:34 | 40.77730 | -73.87176 | 20 ft | 17 kts | 122° |
| 2026-05-05 13:34 | 40.77666 | -73.87042 | 18 ft | 18 kts | 122° |
| 2026-05-05 13:35 | 40.77600 | -73.86903 | 16 ft | 18 kts | 122° |
| 2026-05-05 13:35 | 40.77531 | -73.86772 | 13 ft | 17 kts | 134° |
| 2026-05-05 13:35 | 40.77464 | -73.86643 | 12 ft | 17 kts | 122° |
| 2026-05-05 13:35 | 40.77403 | -73.86515 | 14 ft | 16 kts | 122° |
| 2026-05-05 13:36 | 40.77344 | -73.86392 | 14 ft | 16 kts | 122° |
| 2026-05-05 13:36 | 40.77287 | -73.86274 | 16 ft | 15 kts | 122° |
| 2026-05-05 13:36 | 40.77241 | -73.86176 | 17 ft | 8 kts | 122° |
| 2026-05-05 13:36 | 40.77191 | -73.86157 | 15 ft | 9 kts | 200° |
| 2026-05-05 13:37 | 40.77134 | -73.86196 | 16 ft | 9 kts | 207° |
| 2026-05-05 13:37 | 40.77076 | -73.86215 | 15 ft | 9 kts | 155° |
| 2026-05-05 13:37 | 40.77044 | -73.86154 | 15 ft | 6 kts | 127° |
| 2026-05-05 13:37 | 40.77040 | -73.86146 | 15 ft | 0 kts | 127° |